ADDS METAR Data INFO
IDs: Format: Raw Decoded Include TAF

Data at: 2022 UTC 18 Aug 2017

EDDV 181950Z 22004KT 190V250 9999 -RA FEW018 SCT060 BKN090 17/16 Q1011 TEMPO RA

TAF EDDV 181700Z 1818/1918 23006KT 9999 SCT020
  TEMPO 1818/1822 RA
  BECMG 1905/1907 23011KT
  BECMG 1908/1910 24015G25KT
  TEMPO 1915/1918 SHRA BKN025CB
  BECMG 1915/1918 25010KT